首页
METAR-TAF:

METAR-TAF

机场 :

薩拉戈薩機場

萨拉戈萨, 西班牙

纬度: 41-40N, 经度: 001-01W, 海拔: 263米

当前天气观测

该预报发布于39分钟前的15:30 UTC
风速11节,风向西北,在西之间变化
温度 24°C
湿度 41%
气压 1011 hPa
能见度10公里或以上
1500米以下无云,无积雨云

METAR: LEZG 051530Z 32011KT 280V350 CAVOK 24/10 Q1011

时间: 18:09 (16:09 UTC)

预报

该预报发布于5小时和9分钟前的11:00 UTC
预报有效从05日的 12点(UTC)到 06日的 12点(UTC)
风速15节,风向西转西北
能见度10公里或以上
少量云层高于5000英尺
短暂存在
从 05日的 18点(UTC)到 06日的 12点(UTC)
风速4节,风向多变

TAF: LEZG 051100Z 0512/0612 30015KT 9999 FEW050 TX26/0513Z TN14/0606Z TEMPO 0518/0612 VRB04KT

超过4000个机场的气象观测和天气预报(METAR&TAF报告)。

可查询的气象台以黄色和红色小点在地图上表示。

将鼠标移到小点上方,可查看气象台名称。

然后点击查看天气观测和预报。

如需切换地图:点击带黑十字的绿色按钮放大地图;点击带横线的绿色按钮缩小地图;或者点击绿色箭头查看邻近地区的地图。


METAR-TAF: